Time;durP1;ratioP1;P1;durP2;ratioP2;P2;SDS_P1;SDS_P2;PMS_P1;PMS_P2;Temp;Humidity;BMP_temperature;BMP_pressure;BME280_temperature;BME280_humidity;BME280_pressure;Samples;Min_cycle;Max_cycle;Signal;HPM_P1;HPM_P2
2023/04/07 00:00:17;;;;;;;41.05;33.17;;;7.30;99.90;;;;;;6102929;23;20024;-82
2023/04/07 00:02:43;;;;;;;38.60;30.55;;;7.20;99.90;;;;;;6127373;23;20040;-82
2023/04/07 00:05:08;;;;;;;39.40;34.42;;;7.20;99.90;;;;;;6127281;23;20096;-82
2023/04/07 00:07:34;;;;;;;41.90;32.17;;;7.20;99.90;;;;;;6153303;23;20013;-82
2023/04/07 00:10:00;;;;;;;38.05;32.75;;;7.20;99.90;;;;;;6126542;23;20017;-82
2023/04/07 00:12:26;;;;;;;39.42;33.85;;;7.20;99.90;;;;;;6127681;23;20013;-82
2023/04/07 00:14:51;;;;;;;39.45;32.92;;;7.20;99.90;;;;;;6127328;23;20101;-82
2023/04/07 00:17:17;;;;;;;37.15;32.17;;;7.20;99.90;;;;;;6127493;23;20064;-82
2023/04/07 00:19:42;;;;;;;40.28;33.85;;;7.20;99.90;;;;;;6153687;23;20432;-81
2023/04/07 00:22:08;;;;;;;39.28;33.33;;;7.20;99.90;;;;;;6153838;23;20076;-82
2023/04/07 00:24:34;;;;;;;43.38;34.67;;;7.20;99.90;;;;;;6153400;23;20040;-83
2023/04/07 00:27:00;;;;;;;40.40;34.13;;;7.20;99.90;;;;;;6154061;23;20006;-82
2023/04/07 00:29:26;;;;;;;36.65;32.35;;;7.20;99.90;;;;;;6102959;23;20098;-83
2023/04/07 00:31:52;;;;;;;40.20;33.38;;;7.20;99.90;;;;;;6153666;23;20009;-83
2023/04/07 00:34:17;;;;;;;37.47;31.13;;;7.20;99.90;;;;;;6127840;23;20072;-83
2023/04/07 00:36:43;;;;;;;40.83;35.28;;;7.20;99.90;;;;;;6127911;23;20322;-82
2023/04/07 00:39:09;;;;;;;39.75;35.45;;;7.20;99.90;;;;;;6101619;23;20012;-83
2023/04/07 00:41:35;;;;;;;39.47;33.95;;;7.20;99.90;;;;;;6127190;23;20032;-83
2023/04/07 00:44:01;;;;;;;41.97;35.28;;;7.20;99.90;;;;;;6126553;23;20063;-82
2023/04/07 00:46:27;;;;;;;36.47;31.08;;;7.40;99.90;;;;;;6126589;23;20021;-83
2023/04/07 00:48:52;;;;;;;43.90;35.08;;;7.20;99.90;;;;;;6126337;23;20396;-83
2023/04/07 00:51:21;;;;;;;44.30;37.03;;;7.50;99.90;;;;;;6126637;23;20020;-83
2023/04/07 00:53:48;;;;;;;44.35;36.60;;;7.20;99.90;;;;;;6096362;23;20112;-83
2023/04/07 00:56:14;;;;;;;39.20;34.25;;;7.20;99.90;;;;;;6123590;23;20083;-82
2023/04/07 00:58:40;;;;;;;46.35;38.53;;;7.20;99.90;;;;;;6097529;23;20049;-81
2023/04/07 01:01:15;;;;;;;42.22;35.95;;;7.20;99.90;;;;;;6121800;23;20013;-82
2023/04/07 01:03:52;;;;;;;42.95;36.85;;;7.20;99.90;;;;;;6123688;23;20034;-81
2023/04/07 01:06:21;;;;;;;47.03;37.10;;;7.20;99.90;;;;;;6123189;23;20014;-83
2023/04/07 01:08:54;;;;;;;45.20;36.90;;;7.30;99.90;;;;;;6123395;23;20509;-82
2023/04/07 01:11:29;;;;;;;46.13;37.47;;;7.20;99.90;;;;;;6121733;23;20018;-83
2023/04/07 01:13:58;;;;;;;33.67;29.40;;;7.20;99.90;;;;;;6122020;23;20014;-83
2023/04/07 01:16:31;;;;;;;42.35;35.97;;;7.20;99.90;;;;;;6097952;23;20504;-83
2023/04/07 01:19:07;;;;;;;38.22;34.00;;;7.20;99.90;;;;;;6125991;23;20029;-82
2023/04/07 01:21:36;;;;;;;46.17;39.25;;;7.20;99.90;;;;;;6099150;23;20010;-82
2023/04/07 01:24:28;;;;;;;50.08;40.70;;;7.20;99.90;;;;;;6126301;23;20010;-82
2023/04/07 01:27:04;;;;;;;42.03;37.33;;;7.20;99.90;;;;;;6123597;23;20021;-82
2023/04/07 01:29:46;;;;;;;38.08;32.97;;;7.20;99.90;;;;;;6123686;23;20022;-82
2023/04/07 01:32:13;;;;;;;49.83;39.92;;;7.20;99.90;;;;;;6125733;23;20010;-81
2023/04/07 01:34:40;;;;;;;50.38;40.55;;;7.30;99.90;;;;;;6123683;23;20024;-82
2023/04/07 01:37:06;;;;;;;48.63;40.15;;;7.20;99.90;;;;;;6123093;23;20053;-82
2023/04/07 01:39:33;;;;;;;43.08;36.65;;;7.20;99.90;;;;;;6125836;23;20014;-82
2023/04/07 01:42:01;;;;;;;51.55;40.60;;;7.20;99.90;;;;;;6123948;23;20018;-82
2023/04/07 01:44:27;;;;;;;53.00;41.05;;;7.20;99.90;;;;;;6125863;23;20018;-82
2023/04/07 01:46:55;;;;;;;55.15;42.95;;;7.20;99.90;;;;;;6123812;23;20068;-83
2023/04/07 01:49:22;;;;;;;51.97;40.53;;;7.20;99.90;;;;;;6123654;23;20022;-82
2023/04/07 01:51:49;;;;;;;55.22;42.65;;;7.20;99.90;;;;;;6123427;23;20014;-82
2023/04/07 01:54:16;;;;;;;58.67;45.58;;;7.20;99.90;;;;;;6152419;23;20018;-82
2023/04/07 01:56:43;;;;;;;45.95;37.60;;;7.20;99.90;;;;;;6128478;23;20025;-81
2023/04/07 01:59:09;;;;;;;55.97;42.63;;;7.10;99.90;;;;;;6128855;23;20017;-82
2023/04/07 02:01:35;;;;;;;51.45;41.88;;;7.20;99.90;;;;;;6128826;23;20009;-83
2023/04/07 02:04:26;;;;;;;53.40;42.25;;;7.10;99.90;;;;;;6129060;23;20009;-82
2023/04/07 02:06:58;;;;;;;41.80;37.05;;;7.20;99.90;;;;;;6155350;23;20063;-82
2023/04/07 02:09:28;;;;;;;54.33;42.10;;;7.20;99.90;;;;;;6128506;23;20014;-82
2023/04/07 02:11:57;;;;;;;52.60;42.53;;;7.20;99.90;;;;;;6155106;23;20017;-83
2023/04/07 02:14:23;;;;;;;56.05;43.83;;;7.20;99.90;;;;;;6155444;23;20009;-82
2023/04/07 02:16:51;;;;;;;55.80;42.40;;;7.20;99.90;;;;;;6155511;23;20021;-82
2023/04/07 02:19:17;;;;;;;56.72;43.17;;;7.20;99.90;;;;;;6155369;23;20005;-83
2023/04/07 02:21:44;;;;;;;63.10;45.60;;;7.20;99.90;;;;;;6103814;23;20017;-81
2023/04/07 02:24:11;;;;;;;60.75;45.42;;;7.20;99.90;;;;;;6154445;23;20029;-83
2023/04/07 02:26:36;;;;;;;60.85;46.92;;;7.20;99.90;;;;;;6154377;23;20021;-82
2023/04/07 02:29:05;;;;;;;56.10;44.05;;;7.20;99.90;;;;;;6154275;23;20013;-82
2023/04/07 02:31:30;;;;;;;53.95;43.15;;;7.20;99.90;;;;;;6127995;23;20009;-82
2023/04/07 02:33:56;;;;;;;66.45;48.35;;;7.20;99.90;;;;;;6103441;23;20064;-82
2023/04/07 02:36:22;;;;;;;44.20;38.53;;;7.20;99.90;;;;;;6127793;23;20041;-81
2023/04/07 02:38:47;;;;;;;45.75;39.00;;;7.20;99.90;;;;;;6127862;23;20318;-83
2023/04/07 02:41:13;;;;;;;63.83;45.85;;;7.20;99.90;;;;;;6153960;23;20057;-81
2023/04/07 02:43:39;;;;;;;60.15;45.80;;;7.20;99.90;;;;;;6154604;23;20020;-82
2023/04/07 02:46:04;;;;;;;47.53;40.72;;;7.20;99.90;;;;;;6127884;23;20014;-82
2023/04/07 02:48:30;;;;;;;54.50;43.28;;;7.20;99.90;;;;;;6127316;23;20014;-82
2023/04/07 02:50:58;;;;;;;54.90;45.67;;;7.20;99.90;;;;;;6128273;23;20017;-82
2023/04/07 02:53:24;;;;;;;59.38;46.08;;;7.20;99.90;;;;;;6122811;23;20018;-83
2023/04/07 02:55:50;;;;;;;52.53;42.40;;;7.20;99.90;;;;;;6122946;23;20010;-83
2023/04/07 02:58:15;;;;;;;58.10;46.13;;;7.20;99.90;;;;;;6124676;23;20114;-83
2023/04/07 03:00:41;;;;;;;57.58;45.30;;;7.40;99.90;;;;;;6123697;23;20029;-83
2023/04/07 03:03:07;;;;;;;57.70;44.78;;;7.20;99.90;;;;;;6123519;23;20037;-82
2023/04/07 03:05:32;;;;;;;63.33;46.25;;;7.20;99.90;;;;;;6123701;23;20014;-84
2023/04/07 03:07:58;;;;;;;60.25;45.92;;;7.20;99.90;;;;;;6098488;23;20022;-83
2023/04/07 03:10:23;;;;;;;48.28;40.63;;;7.20;99.90;;;;;;6124577;23;20085;-82
2023/04/07 03:12:49;;;;;;;55.85;44.67;;;7.20;99.90;;;;;;6125003;23;20092;-83
2023/04/07 03:15:15;;;;;;;49.90;41.90;;;7.20;99.90;;;;;;6124755;23;20009;-84
2023/04/07 03:17:40;;;;;;;58.53;45.67;;;7.20;99.90;;;;;;6124568;23;20017;-83
2023/04/07 03:20:07;;;;;;;56.90;45.28;;;7.20;99.90;;;;;;6122980;23;20045;-83
2023/04/07 03:22:32;;;;;;;57.45;45.90;;;7.20;99.90;;;;;;6122848;23;20025;-82
2023/04/07 03:24:58;;;;;;;52.72;42.08;;;7.20;99.90;;;;;;6123441;23;20345;-82
2023/04/07 03:27:24;;;;;;;49.35;39.58;;;7.20;99.90;;;;;;6124984;23;20062;-82
2023/04/07 03:29:52;;;;;;;48.95;41.00;;;7.30;99.90;;;;;;6122933;23;20021;-83
2023/04/07 03:32:17;;;;;;;52.17;41.72;;;7.20;99.90;;;;;;6124758;23;20021;-83
2023/04/07 03:34:43;;;;;;;68.38;47.92;;;7.10;99.90;;;;;;6123414;23;20006;-82
2023/04/07 03:37:09;;;;;;;64.93;44.95;;;7.10;99.90;;;;;;6125152;23;20425;-83
2023/04/07 03:39:36;;;;;;;62.30;45.75;;;7.20;99.90;;;;;;6123011;23;20126;-83
2023/04/07 03:42:02;;;;;;;65.90;48.13;;;7.20;99.90;;;;;;6123341;23;20076;-83
2023/04/07 03:44:28;;;;;;;64.72;46.40;;;7.20;99.90;;;;;;6123070;23;20013;-82
2023/04/07 03:46:53;;;;;;;66.10;46.58;;;7.10;99.90;;;;;;6122574;23;20024;-83
2023/04/07 03:49:19;;;;;;;65.50;47.42;;;7.10;99.90;;;;;;6123341;23;20109;-83
2023/04/07 03:51:45;;;;;;;68.05;46.70;;;7.10;99.90;;;;;;6123482;23;20010;-83
2023/04/07 03:54:11;;;;;;;62.70;46.15;;;7.20;99.90;;;;;;6122383;23;20025;-83
2023/04/07 03:56:37;;;;;;;53.85;40.58;;;7.10;99.90;;;;;;6124196;23;20014;-83
2023/04/07 03:59:02;;;;;;;53.25;41.75;;;7.30;99.90;;;;;;6124308;23;20010;-83
2023/04/07 04:01:28;;;;;;;61.55;43.08;;;7.10;99.90;;;;;;6123798;23;20056;-83
2023/04/07 04:03:54;;;;;;;52.08;39.40;;;7.10;99.90;;;;;;6122432;23;20018;-84
2023/04/07 04:06:19;;;;;;;50.17;39.72;;;7.10;99.90;;;;;;6097880;23;20082;-83
2023/04/07 04:08:45;;;;;;;52.63;40.45;;;7.10;99.90;;;;;;6122329;23;20052;-82
2023/04/07 04:11:10;;;;;;;51.17;40.35;;;7.10;99.90;;;;;;6122169;23;20018;-83
2023/04/07 04:13:36;;;;;;;57.83;42.33;;;7.10;99.90;;;;;;6122461;23;20014;-83
2023/04/07 04:16:02;;;;;;;50.92;40.00;;;7.10;99.90;;;;;;6123801;23;20425;-83
2023/04/07 04:18:27;;;;;;;47.42;37.25;;;7.10;99.90;;;;;;6122593;23;20014;-83
2023/04/07 04:20:53;;;;;;;64.38;41.92;;;7.10;99.90;;;;;;6122331;23;20516;-83
2023/04/07 04:23:18;;;;;;;49.67;39.05;;;7.10;99.90;;;;;;6122189;23;20080;-81
2023/04/07 04:25:44;;;;;;;55.13;42.20;;;7.10;99.90;;;;;;6124175;23;20068;-82
2023/04/07 04:28:10;;;;;;;49.08;40.30;;;7.10;99.90;;;;;;6124201;23;20025;-83
2023/04/07 04:30:35;;;;;;;51.25;39.67;;;7.00;99.90;;;;;;6121633;23;20029;-82
2023/04/07 04:33:01;;;;;;;45.50;38.40;;;7.00;99.90;;;;;;6122667;23;20018;-82
2023/04/07 04:35:27;;;;;;;47.90;38.25;;;7.10;99.90;;;;;;6122229;23;20014;-82
2023/04/07 04:37:53;;;;;;;41.78;36.08;;;7.00;99.90;;;;;;6122167;23;20085;-83
2023/04/07 04:40:18;;;;;;;47.55;38.28;;;7.10;99.90;;;;;;6124604;23;20053;-84
2023/04/07 04:42:44;;;;;;;47.55;37.97;;;7.00;99.90;;;;;;6121891;23;20018;-83
2023/04/07 04:45:10;;;;;;;44.63;34.75;;;7.00;99.90;;;;;;6121390;23;20018;-84
2023/04/07 04:47:37;;;;;;;48.05;37.70;;;7.00;99.90;;;;;;6122473;23;20045;-83
2023/04/07 04:50:05;;;;;;;52.72;38.80;;;7.00;99.90;;;;;;6123902;23;20028;-82
2023/04/07 04:52:31;;;;;;;41.42;34.47;;;7.00;99.90;;;;;;6128522;23;20087;-83
2023/04/07 04:54:57;;;;;;;47.58;37.17;;;7.00;99.90;;;;;;6102530;23;20032;-83
2023/04/07 04:57:22;;;;;;;45.38;36.47;;;7.00;99.90;;;;;;6153378;23;20017;-83
2023/04/07 04:59:48;;;;;;;38.65;31.80;;;7.00;99.90;;;;;;6126243;23;20017;-83
2023/04/07 05:02:14;;;;;;;41.92;34.78;;;7.00;99.90;;;;;;6153588;23;20039;-83
2023/04/07 05:04:39;;;;;;;41.70;34.13;;;7.20;99.90;;;;;;6127521;23;20328;-83
2023/04/07 05:07:05;;;;;;;37.90;31.95;;;7.00;99.90;;;;;;6153816;23;20009;-83
2023/04/07 05:09:31;;;;;;;39.00;32.47;;;7.00;99.90;;;;;;6126871;23;20014;-83
2023/04/07 05:11:56;;;;;;;41.58;33.53;;;7.00;99.90;;;;;;6102389;23;20020;-84
2023/04/07 05:14:22;;;;;;;41.67;34.42;;;7.10;99.90;;;;;;6126595;23;20012;-84
2023/04/07 05:16:48;;;;;;;37.67;32.75;;;7.20;99.90;;;;;;6127429;23;20021;-83
2023/04/07 05:19:14;;;;;;;39.88;32.00;;;7.00;99.90;;;;;;6127310;23;20017;-82
2023/04/07 05:21:40;;;;;;;39.75;32.03;;;7.00;99.90;;;;;;6127231;23;20010;-81
2023/04/07 05:24:05;;;;;;;39.47;32.45;;;7.00;99.90;;;;;;6127503;23;20089;-81
2023/04/07 05:26:31;;;;;;;43.63;33.80;;;7.00;99.90;;;;;;6126823;23;20029;-82
2023/04/07 05:28:57;;;;;;;43.83;34.10;;;7.00;99.90;;;;;;6126290;23;20006;-82
2023/04/07 05:31:22;;;;;;;41.03;32.10;;;7.00;99.90;;;;;;6152483;23;20383;-82
2023/04/07 05:33:48;;;;;;;38.47;31.33;;;7.00;99.90;;;;;;6102157;23;20023;-81
2023/04/07 05:36:13;;;;;;;40.78;33.53;;;7.00;99.90;;;;;;6152951;23;20484;-81
2023/04/07 05:38:39;;;;;;;41.95;34.92;;;7.00;99.90;;;;;;6126373;23;20093;-81
2023/04/07 05:41:05;;;;;;;40.00;32.33;;;7.10;99.90;;;;;;6126167;23;20361;-81
2023/04/07 05:43:30;;;;;;;43.30;32.95;;;7.00;99.90;;;;;;6101414;23;20065;-81
2023/04/07 05:45:56;;;;;;;38.30;32.95;;;7.10;99.90;;;;;;6152960;23;20344;-81
2023/04/07 05:48:22;;;;;;;42.50;33.90;;;7.10;99.90;;;;;;6152964;23;20014;-82
2023/04/07 05:50:47;;;;;;;38.80;32.47;;;7.00;99.90;;;;;;6126096;23;20552;-81
2023/04/07 05:53:13;;;;;;;36.80;30.42;;;7.00;99.90;;;;;;6096950;23;20045;-81
2023/04/07 05:55:42;;;;;;;38.17;32.78;;;7.00;99.90;;;;;;6121356;23;20049;-81
2023/04/07 05:58:08;;;;;;;37.60;32.67;;;7.10;99.90;;;;;;6120743;23;20089;-81
2023/04/07 06:00:33;;;;;;;40.60;34.53;;;7.10;99.90;;;;;;6123469;23;20064;-81
2023/04/07 06:03:00;;;;;;;45.28;37.20;;;7.10;99.90;;;;;;6124294;23;20057;-81
2023/04/07 06:05:26;;;;;;;47.17;36.70;;;7.10;99.90;;;;;;6123517;23;20018;-82
2023/04/07 06:07:51;;;;;;;46.30;37.08;;;7.10;99.90;;;;;;6123440;23;20017;-83
2023/04/07 06:10:17;;;;;;;44.95;35.83;;;7.10;99.90;;;;;;6098302;23;20049;-83
2023/04/07 06:12:43;;;;;;;42.20;36.53;;;7.10;99.90;;;;;;6098500;23;20032;-83
2023/04/07 06:15:08;;;;;;;46.97;39.60;;;7.20;99.90;;;;;;6099568;23;20408;-83
2023/04/07 06:17:34;;;;;;;43.97;36.90;;;7.20;99.90;;;;;;6098954;23;20081;-83
2023/04/07 06:20:00;;;;;;;42.00;36.78;;;7.20;99.90;;;;;;6123053;23;20014;-82
2023/04/07 06:22:25;;;;;;;39.63;34.88;;;7.20;99.90;;;;;;6122767;23;20720;-83
2023/04/07 06:24:51;;;;;;;40.65;35.08;;;7.20;99.90;;;;;;6122722;23;20010;-82
2023/04/07 06:27:17;;;;;;;42.53;35.08;;;7.30;99.90;;;;;;6097845;23;20345;-83
2023/04/07 06:29:43;;;;;;;42.05;35.97;;;7.30;99.90;;;;;;6124609;23;20020;-83
2023/04/07 06:32:08;;;;;;;45.35;38.40;;;7.50;99.90;;;;;;6122866;23;20306;-82
2023/04/07 06:34:34;;;;;;;40.47;35.80;;;7.30;99.90;;;;;;6122876;23;20010;-83
2023/04/07 06:37:00;;;;;;;47.80;38.72;;;7.30;99.90;;;;;;6124429;23;20010;-83
2023/04/07 06:39:26;;;;;;;44.28;37.95;;;7.40;99.90;;;;;;6124714;23;20136;-83
2023/04/07 06:41:51;;;;;;;40.97;35.38;;;7.40;99.90;;;;;;6122071;23;20092;-83
2023/04/07 06:44:17;;;;;;;42.10;35.90;;;7.40;99.90;;;;;;6122696;23;20021;-83
2023/04/07 06:46:46;;;;;;;38.83;31.40;;;7.50;99.90;;;;;;6122770;23;20112;-83
2023/04/07 06:49:11;;;;;;;38.78;32.15;;;7.50;99.90;;;;;;6123121;23;20021;-83
2023/04/07 06:51:37;;;;;;;37.80;30.35;;;7.50;99.90;;;;;;6124636;23;20014;-83
2023/04/07 06:54:04;;;;;;;33.65;29.67;;;7.50;99.90;;;;;;6122679;23;20026;-83
2023/04/07 06:56:29;;;;;;;35.55;30.00;;;7.60;99.90;;;;;;6124399;23;20398;-83
2023/04/07 06:58:55;;;;;;;34.78;28.77;;;7.60;99.90;;;;;;6124941;23;20052;-83
2023/04/07 07:01:21;;;;;;;33.22;29.08;;;7.70;99.90;;;;;;6124925;23;20018;-84
2023/04/07 07:03:46;;;;;;;34.75;27.85;;;7.80;99.90;;;;;;6125288;23;20014;-83
2023/04/07 07:06:12;;;;;;;33.45;29.83;;;7.90;99.90;;;;;;6123325;23;20018;-83
2023/04/07 07:08:38;;;;;;;31.75;28.13;;;7.90;99.90;;;;;;6122109;23;20097;-83
2023/04/07 07:11:03;;;;;;;30.98;27.70;;;8.00;99.90;;;;;;6122174;23;20045;-83
2023/04/07 07:13:29;;;;;;;35.53;29.00;;;8.10;99.90;;;;;;6124056;23;20020;-83
2023/04/07 07:15:55;;;;;;;30.52;27.38;;;8.10;99.90;;;;;;6097706;23;20014;-83
2023/04/07 07:18:20;;;;;;;31.02;27.63;;;8.40;99.90;;;;;;6098538;23;20037;-83
2023/04/07 07:20:46;;;;;;;30.73;26.05;;;8.30;99.90;;;;;;6096826;23;20013;-83
2023/04/07 07:23:12;;;;;;;29.73;26.52;;;8.40;99.90;;;;;;6121447;23;20020;-84
2023/04/07 07:25:37;;;;;;;28.38;23.73;;;8.40;99.90;;;;;;6124002;23;20006;-83
2023/04/07 07:28:03;;;;;;;24.63;22.02;;;8.40;99.90;;;;;;6122324;23;20292;-84
2023/04/07 07:30:29;;;;;;;26.38;23.58;;;8.30;99.90;;;;;;6122493;23;20037;-84
2023/04/07 07:32:55;;;;;;;26.00;22.88;;;8.30;99.90;;;;;;6122112;23;20017;-84
2023/04/07 07:35:22;;;;;;;27.27;24.38;;;8.40;99.90;;;;;;6122811;23;20022;-83
2023/04/07 07:37:47;;;;;;;28.10;21.40;;;8.50;99.90;;;;;;6122040;23;20010;-84
2023/04/07 07:40:13;;;;;;;24.70;21.73;;;8.50;99.90;;;;;;6122826;23;20049;-84
2023/04/07 07:42:39;;;;;;;24.85;22.35;;;8.60;99.90;;;;;;6097780;23;20025;-83
2023/04/07 07:45:05;;;;;;;25.88;22.85;;;8.90;99.90;;;;;;6124411;23;20033;-85
2023/04/07 07:47:31;;;;;;;25.83;22.88;;;8.60;99.90;;;;;;6097954;23;20014;-84
2023/04/07 07:49:57;;;;;;;22.58;19.55;;;8.60;99.90;;;;;;6123053;23;20010;-85
2023/04/07 07:52:22;;;;;;;22.17;19.85;;;8.60;99.90;;;;;;6129566;23;20036;-85
2023/04/07 07:54:49;;;;;;;22.25;19.85;;;8.70;99.90;;;;;;6103400;23;20017;-84
2023/04/07 07:57:15;;;;;;;22.45;20.05;;;8.70;99.90;;;;;;6127430;23;20014;-84
2023/04/07 07:59:40;;;;;;;22.85;19.77;;;8.60;99.90;;;;;;6153676;23;20089;-87
2023/04/07 08:02:07;;;;;;;22.75;20.45;;;8.60;99.90;;;;;;6102865;23;20453;-86
2023/04/07 08:04:32;;;;;;;20.95;18.75;;;8.60;99.90;;;;;;6127466;23;20013;-85
2023/04/07 08:06:58;;;;;;;20.92;18.83;;;8.60;99.90;;;;;;6126631;23;20436;-85
2023/04/07 08:09:24;;;;;;;22.70;20.40;;;8.60;99.90;;;;;;6153735;23;20072;-84
2023/04/07 08:11:50;;;;;;;20.35;18.25;;;8.60;99.90;;;;;;6127037;23;20018;-84
2023/04/07 08:14:16;;;;;;;22.45;20.05;;;8.80;99.90;;;;;;6126754;23;20105;-83
2023/04/07 08:16:42;;;;;;;20.65;18.55;;;8.70;99.90;;;;;;6102511;23;20440;-84
2023/04/07 08:19:08;;;;;;;21.17;19.05;;;8.70;99.90;;;;;;6127459;23;20118;-84
2023/04/07 08:21:33;;;;;;;20.48;18.38;;;8.80;99.90;;;;;;6152750;23;20080;-84
2023/04/07 08:24:00;;;;;;;20.00;16.90;;;8.90;99.90;;;;;;6153742;23;20005;-84
2023/04/07 08:26:26;;;;;;;18.02;16.23;;;9.00;99.90;;;;;;6127399;23;20080;-87
2023/04/07 08:28:52;;;;;;;18.00;16.20;;;9.20;99.90;;;;;;6153736;23;20013;-85
2023/04/07 08:31:18;;;;;;;17.45;15.68;;;9.30;99.90;;;;;;6102350;23;20084;-86
2023/04/07 08:33:44;;;;;;;17.95;16.15;;;9.40;99.90;;;;;;6153612;23;20413;-84
2023/04/07 08:36:10;;;;;;;18.40;16.17;;;9.30;99.90;;;;;;6126264;23;20017;-84
2023/04/07 08:38:35;;;;;;;19.48;17.48;;;9.20;99.90;;;;;;6102281;23;20010;-84
2023/04/07 08:41:10;;;;;;;19.63;17.52;;;9.30;99.90;;;;;;6127829;23;20013;-84
2023/04/07 08:43:41;;;;;;;20.00;17.85;;;9.40;99.90;;;;;;6128099;23;20009;-83
2023/04/07 08:46:13;;;;;;;20.67;18.58;;;9.60;99.90;;;;;;6126778;23;20056;-83
2023/04/07 08:48:42;;;;;;;19.77;17.80;;;9.80;99.90;;;;;;6103588;23;20118;-84
2023/04/07 08:51:09;;;;;;;21.17;19.10;;;10.00;99.90;;;;;;6126525;23;20468;-85
2023/04/07 08:53:42;;;;;;;20.95;18.95;;;10.30;99.90;;;;;;6121511;23;20018;-83
2023/04/07 08:56:10;;;;;;;20.07;17.97;;;10.30;99.90;;;;;;6097196;23;20152;-84
2023/04/07 08:58:37;;;;;;;20.90;18.77;;;10.40;99.90;;;;;;6121675;23;20016;-84
2023/04/07 09:01:05;;;;;;;19.95;17.85;;;10.50;99.90;;;;;;6121422;23;20093;-84
2023/04/07 09:03:32;;;;;;;21.40;19.20;;;10.40;99.90;;;;;;6097493;23;20306;-84
2023/04/07 09:06:02;;;;;;;20.25;18.23;;;10.50;99.90;;;;;;6123394;23;20017;-84
2023/04/07 09:08:28;;;;;;;19.05;16.15;;;10.60;99.90;;;;;;6121660;23;20041;-84
2023/04/07 09:10:55;;;;;;;20.92;18.67;;;10.60;99.90;;;;;;6122135;23;20014;-83
2023/04/07 09:13:23;;;;;;;20.75;18.65;;;10.60;99.90;;;;;;6121860;23;20025;-84
2023/04/07 09:15:49;;;;;;;18.95;17.15;;;10.70;99.90;;;;;;6122018;23;20014;-84
2023/04/07 09:18:18;;;;;;;22.75;18.15;;;10.50;99.90;;;;;;6097669;23;20097;-84
2023/04/07 09:21:03;;;;;;;20.00;17.90;;;10.70;99.90;;;;;;6097755;23;20009;-84
2023/04/07 09:23:29;;;;;;;18.92;16.92;;;10.70;99.90;;;;;;6097198;23;20353;-84
2023/04/07 09:25:55;;;;;;;19.27;17.30;;;10.90;99.90;;;;;;6123009;23;20017;-84
2023/04/07 09:28:21;;;;;;;19.75;17.75;;;10.90;99.90;;;;;;6124508;23;20437;-84
2023/04/07 09:30:54;;;;;;;19.83;17.77;;;10.90;99.90;;;;;;6123611;23;20080;-85
2023/04/07 09:33:29;;;;;;;20.67;18.55;;;10.80;99.90;;;;;;6124774;23;20029;-85
2023/04/07 09:35:55;;;;;;;21.42;18.55;;;10.80;99.90;;;;;;6123511;23;20017;-85
2023/04/07 09:38:21;;;;;;;21.33;19.20;;;10.60;99.90;;;;;;6123074;23;20479;-85
2023/04/07 09:40:48;;;;;;;21.10;19.00;;;10.40;99.90;;;;;;6125643;23;20032;-84
2023/04/07 09:43:18;;;;;;;19.60;17.65;;;10.40;99.90;;;;;;6099067;23;20315;-84
2023/04/07 09:45:43;;;;;;;20.45;18.42;;;10.40;99.90;;;;;;6123559;23;20065;-84
2023/04/07 09:48:20;;;;;;;20.08;18.08;;;10.40;99.90;;;;;;6122794;23;20088;-84
2023/04/07 09:50:50;;;;;;;19.88;17.88;;;10.30;99.90;;;;;;6116559;23;20014;-80
2023/04/07 09:53:18;;;;;;;21.65;18.00;;;10.20;99.90;;;;;;6089738;23;20049;-80
2023/04/07 09:55:44;;;;;;;18.88;16.98;;;10.00;99.90;;;;;;6123717;23;20044;-80
2023/04/07 09:58:15;;;;;;;19.05;16.58;;;10.20;99.90;;;;;;6122623;23;20025;-80
2023/04/07 10:00:41;;;;;;;17.70;15.80;;;10.10;99.90;;;;;;6123217;23;20061;-80
2023/04/07 10:03:07;;;;;;;19.52;16.98;;;10.00;99.90;;;;;;6122825;23;20077;-81
2023/04/07 10:05:35;;;;;;;16.90;15.20;;;10.20;99.90;;;;;;6119816;23;20021;-82
2023/04/07 10:08:01;;;;;;;17.10;15.40;;;10.30;99.90;;;;;;6116609;23;20428;-82
2023/04/07 10:10:28;;;;;;;17.05;15.27;;;10.40;99.90;;;;;;6097233;23;20021;-81
2023/04/07 10:12:56;;;;;;;15.13;13.43;;;10.60;99.90;;;;;;6096402;23;20345;-80
2023/04/07 10:15:22;;;;;;;13.38;11.98;;;10.70;99.90;;;;;;6123558;23;20028;-81
2023/04/07 10:17:48;;;;;;;13.15;11.57;;;10.80;99.90;;;;;;6122775;23;20073;-79
2023/04/07 10:20:17;;;;;;;12.88;11.57;;;10.90;99.90;;;;;;6096915;23;20014;-81
2023/04/07 10:22:44;;;;;;;12.68;11.38;;;11.10;99.90;;;;;;6116760;23;20318;-80
2023/04/07 10:25:12;;;;;;;13.07;11.68;;;11.20;99.90;;;;;;6122159;23;20018;-82
2023/04/07 10:27:50;;;;;;;13.20;11.90;;;11.30;99.90;;;;;;6124546;23;20025;-83
2023/04/07 10:30:28;;;;;;;11.80;10.60;;;11.40;99.90;;;;;;6099798;23;20021;-83
2023/04/07 10:32:54;;;;;;;14.35;12.02;;;11.40;99.90;;;;;;6098931;23;20013;-83
2023/04/07 10:35:21;;;;;;;13.15;11.82;;;11.50;99.90;;;;;;6126053;23;20006;-83
2023/04/07 10:38:06;;;;;;;13.95;12.45;;;11.40;99.90;;;;;;6100015;23;20014;-83
2023/04/07 10:40:32;;;;;;;13.77;12.38;;;11.40;99.90;;;;;;6124182;23;20029;-84
2023/04/07 10:42:58;;;;;;;13.65;12.27;;;11.30;99.90;;;;;;6124341;23;20389;-84
2023/04/07 10:45:47;;;;;;;15.73;14.05;;;11.20;99.90;;;;;;6125703;23;20014;-83
2023/04/07 10:48:14;;;;;;;16.33;14.50;;;11.20;99.90;;;;;;6121993;23;20073;-83
2023/04/07 10:50:41;;;;;;;15.35;13.65;;;11.20;99.90;;;;;;6098664;23;20024;-83
2023/04/07 10:53:11;;;;;;;14.63;13.13;;;11.30;99.90;;;;;;6124060;23;20022;-83
2023/04/07 10:55:38;;;;;;;16.05;14.38;;;11.30;99.90;;;;;;6097190;23;20022;-83
2023/04/07 10:58:27;;;;;;;18.55;13.75;;;11.50;99.90;;;;;;6099027;23;20017;-82
2023/04/07 11:01:02;;;;;;;15.85;13.95;;;11.60;99.90;;;;;;6122570;23;20017;-83
2023/04/07 11:03:29;;;;;;;13.57;12.18;;;11.60;99.90;;;;;;6099621;23;20117;-82
2023/04/07 11:06:05;;;;;;;14.52;12.90;;;11.70;99.90;;;;;;6124208;23;20385;-84
2023/04/07 11:08:42;;;;;;;14.45;12.95;;;11.90;99.90;;;;;;6102860;23;20021;-82
2023/04/07 11:11:10;;;;;;;14.77;13.27;;;12.00;99.90;;;;;;6128740;23;20029;-82
2023/04/07 11:13:49;;;;;;;13.70;11.85;;;11.90;99.90;;;;;;6126904;23;20016;-81
2023/04/07 11:16:17;;;;;;;12.52;11.23;;;11.90;99.90;;;;;;6121245;23;20018;-82
2023/04/07 11:18:45;;;;;;;15.75;12.38;;;11.80;99.90;;;;;;6103732;23;20076;-83
2023/04/07 11:21:10;;;;;;;14.02;12.52;;;11.80;99.90;;;;;;6126413;23;20375;-83
2023/04/07 11:23:40;;;;;;;16.38;14.65;;;11.80;99.90;;;;;;6101594;23;20053;-84
2023/04/07 11:26:08;;;;;;;15.57;13.05;;;12.00;99.90;;;;;;6102936;23;20017;-85
2023/04/07 11:28:36;;;;;;;13.32;11.93;;;12.30;99.90;;;;;;6128089;23;20014;-82
2023/04/07 11:31:03;;;;;;;13.93;12.45;;;12.50;99.90;;;;;;6128930;23;20105;-87
2023/04/07 11:33:31;;;;;;;13.30;12.00;;;12.70;99.90;;;;;;6134550;23;20018;-87
2023/04/07 11:36:01;;;;;;;13.15;11.35;;;12.90;99.90;;;;;;6104481;23;20009;-85
2023/04/07 11:38:45;;;;;;;12.13;10.93;;;12.90;99.90;;;;;;6131757;23;20009;-86
2023/04/07 11:41:14;;;;;;;13.40;12.00;;;12.90;99.90;;;;;;6110156;23;20042;-88
2023/04/07 11:43:43;;;;;;;12.00;10.80;;;12.80;99.90;;;;;;6133727;23;20037;-90
2023/04/07 11:46:10;;;;;;;11.90;10.70;;;12.70;99.90;;;;;;6109106;23;20022;-87
2023/04/07 11:48:38;;;;;;;10.60;9.50;;;12.60;99.90;;;;;;6133637;23;20311;-86
2023/04/07 11:51:04;;;;;;;11.30;9.73;;;12.70;99.90;;;;;;6134180;23;20022;-86
2023/04/07 11:53:31;;;;;;;11.50;9.40;;;12.80;99.90;;;;;;6133150;23;20014;-87
2023/04/07 11:55:59;;;;;;;9.93;8.93;;;12.90;99.90;;;;;;6134339;23;20014;-86
2023/04/07 11:58:25;;;;;;;13.48;9.27;;;13.00;99.90;;;;;;6134333;23;20053;-87
2023/04/07 12:00:55;;;;;;;9.43;8.50;;;13.20;99.90;;;;;;6132108;23;20018;-87
2023/04/07 12:03:22;;;;;;;11.70;8.32;;;13.30;99.90;;;;;;6107924;23;20017;-85
2023/04/07 12:05:48;;;;;;;10.50;8.98;;;13.40;99.90;;;;;;6133090;23;20025;-87
2023/04/07 12:08:18;;;;;;;10.52;8.88;;;13.40;99.90;;;;;;6131894;23;20394;-87
2023/04/07 12:10:44;;;;;;;9.82;8.82;;;13.40;99.90;;;;;;6132568;23;20025;-87
2023/04/07 12:13:13;;;;;;;10.38;8.88;;;13.40;99.90;;;;;;6106495;23;20445;-86
2023/04/07 12:15:39;;;;;;;10.25;9.00;;;13.30;99.90;;;;;;6133262;23;20014;-88
2023/04/07 12:18:05;;;;;;;9.93;8.43;;;13.40;99.90;;;;;;6133267;23;20013;-85
2023/04/07 12:20:30;;;;;;;9.77;8.38;;;13.30;99.90;;;;;;6131456;23;20017;-86
2023/04/07 12:22:57;;;;;;;10.35;8.95;;;13.20;99.90;;;;;;6131726;23;20434;-87
2023/04/07 12:25:23;;;;;;;9.80;8.77;;;13.10;99.90;;;;;;6131807;23;20018;-85
2023/04/07 12:27:48;;;;;;;10.52;9.43;;;13.00;99.90;;;;;;6108623;23;20025;-86
2023/04/07 12:30:14;;;;;;;10.32;9.05;;;13.20;99.90;;;;;;6132603;23;20120;-87
2023/04/07 12:32:40;;;;;;;9.32;8.43;;;13.20;99.90;;;;;;6107135;23;20006;-87
2023/04/07 12:35:05;;;;;;;9.60;8.70;;;13.50;99.90;;;;;;6108134;23;20061;-87